Kanto Maru — JD2868 — position and weather

sailwx.info

Track history (hours):
 
Tides and Currents Weather Stations Pressure Air Temp Water Temp Dewpoint Dewpoint Depression Visibility Wind Speed Wind Dir Waves Ship Positions

Kanto Maru

Last reported at 2018-Feb-25 21:30 UTC. Time now 2018-Feb-25 21:36 UTC.
Position N 35°20' E 139°44'.

Length 40 m.

Type: Tug. MMSI: 431000841.

Date/timePositionNaut miles runAvg speedWind from/ knotsBaromVisibWave heightAir tempDewpointWater temp
2018-Feb-25 21:30N 35°20' E 139°44'611.3
2018-Feb-25 21:00N 35°15' E 139°47'5 9.9
2018-Feb-25 20:30N 35°10' E 139°47'5 9.3
2018-Feb-25 20:00N 35°14' E 139°46'5 9.6
2018-Feb-25 19:30N 35°17' E 139°41'1 1.3
2018-Feb-25 19:00N 35°17' E 139°41'0 0.0
2018-Feb-25 18:30N 35°17' E 139°41'0 0.0
2018-Feb-25 18:00N 35°17' E 139°41'0 0.0
2018-Feb-25 17:30N 35°17' E 139°41'0 0.0
2018-Feb-25 17:00N 35°17' E 139°41'0 0.0
2018-Feb-25 16:30N 35°17' E 139°41'0 0.0
2018-Feb-25 16:00N 35°17' E 139°41'0 0.0
2018-Feb-25 15:31N 35°17' E 139°41'0 0.0
2018-Feb-25 15:00N 35°17' E 139°41'0 0.0
2018-Feb-25 14:30N 35°17' E 139°41'0 0.0
2018-Feb-25 14:00N 35°17' E 139°41'0 0.0
2018-Feb-25 13:30N 35°17' E 139°41'0 0.0
2018-Feb-25 13:00N 35°17' E 139°41'0 0.0
2018-Feb-25 12:31N 35°17' E 139°41'0 0.0
2018-Feb-25 12:00N 35°17' E 139°41'0 0.0
2018-Feb-25 11:30N 35°17' E 139°41'0 0.0
2018-Feb-25 11:00N 35°17' E 139°41'0 0.0
2018-Feb-25 10:30N 35°17' E 139°41'0 0.0
2018-Feb-25 10:00N 35°17' E 139°41'0 0.0
2018-Feb-25 09:30N 35°17' E 139°41'0 0.0
2018-Feb-25 09:00N 35°17' E 139°41'0 0.0
2018-Feb-25 08:30N 35°17' E 139°41'0 0.0
2018-Feb-25 08:00N 35°17' E 139°41'0 0.0
2018-Feb-25 07:30N 35°17' E 139°41'0 0.0
2018-Feb-25 07:00N 35°17' E 139°41'0 0.0
2018-Feb-25 06:31N 35°17' E 139°41'0 0.0
2018-Feb-25 06:00N 35°17' E 139°41'4 7.1
2018-Feb-25 05:30N 35°20' E 139°42'611.0
2018-Feb-25 05:00N 35°25' E 139°46'612.4
2018-Feb-25 04:31N 35°19' E 139°44'611.5
2018-Feb-25 04:00N 35°13' E 139°47'3 6.9
2018-Feb-25 03:30N 35°10' E 139°47'0 0.6
2018-Feb-25 03:01N 35°10' E 139°47'510.0
2018-Feb-25 02:30N 35°15' E 139°46'612.8
2018-Feb-25 02:00N 35°21' E 139°42'611.6
2018-Feb-25 01:29N 35°27' E 139°43'1 1.1
2018-Feb-25 01:00N 35°27' E 139°44'1 1.2
2018-Feb-25 00:30N 35°27' E 139°43'510.7
2018-Feb-25 00:00N 35°22' E 139°42'5 9.4
2018-Feb-24 23:31N 35°17' E 139°41'0 0.2
2018-Feb-24 23:00N 35°17' E 139°41'0 0.0
2018-Feb-24 22:30N 35°17' E 139°41'0 0.0
2018-Feb-24 22:00N 35°17' E 139°41'0 0.0
2018-Feb-24 21:31N 35°17' E 139°41'0 0.1
2018-Feb-24 21:00N 35°17' E 139°41'0 0.0
2018-Feb-24 20:30N 35°17' E 139°41'0 0.0
2018-Feb-24 20:00N 35°17' E 139°41'0 0.1
2018-Feb-24 19:30N 35°17' E 139°41'0 0.0
2018-Feb-24 18:59N 35°17' E 139°41'0 0.0
2018-Feb-24 18:31N 35°17' E 139°41'0 0.0
2018-Feb-24 18:00N 35°17' E 139°41'0 0.0
2018-Feb-24 17:30N 35°17' E 139°41'0 0.0
2018-Feb-24 17:00N 35°17' E 139°41'0 0.0
2018-Feb-24 16:30N 35°17' E 139°41'0 0.0
2018-Feb-24 16:01N 35°17' E 139°41'0 0.0
2018-Feb-24 15:30N 35°17' E 139°41'0 0.0
2018-Feb-24 15:00N 35°17' E 139°41'0 0.0
2018-Feb-24 14:31N 35°17' E 139°41'0 0.0
2018-Feb-24 14:00N 35°17' E 139°41'0 0.0
2018-Feb-24 13:31N 35°17' E 139°41'0 0.0
2018-Feb-24 13:00N 35°17' E 139°41'0 0.0
2018-Feb-24 12:30N 35°17' E 139°41'0 0.1
2018-Feb-24 12:00N 35°17' E 139°41'0 0.1
2018-Feb-24 11:30N 35°17' E 139°41'0 0.0
2018-Feb-24 11:00N 35°17' E 139°41'0 0.0
2018-Feb-24 10:30N 35°17' E 139°41'0 0.1
2018-Feb-24 10:00N 35°17' E 139°41'0 0.0
2018-Feb-24 09:30N 35°17' E 139°41'0 0.1
2018-Feb-24 09:00N 35°17' E 139°41'0 0.1
2018-Feb-24 08:29N 35°17' E 139°41'0 0.1
2018-Feb-24 08:00N 35°17' E 139°41'0 0.0
2018-Feb-24 07:30N 35°17' E 139°41'0 0.0
2018-Feb-24 07:00N 35°17' E 139°41'0 0.0
2018-Feb-24 06:30N 35°17' E 139°41'0 0.0
2018-Feb-24 06:00N 35°17' E 139°41'0 0.0
2018-Feb-24 05:30N 35°17' E 139°41'0 0.0
2018-Feb-24 05:00N 35°17' E 139°41'1 1.4
2018-Feb-24 04:31N 35°17' E 139°41'4 8.8
2018-Feb-24 04:00N 35°15' E 139°46'1 1.5
2018-Feb-24 03:30N 35°15' E 139°46'612.9
2018-Feb-24 03:00N 35°20' E 139°43'510.6
2018-Feb-24 02:30N 35°25' E 139°45'5 9.6
2018-Feb-24 02:00N 35°23' E 139°50'0 0.9
2018-Feb-24 01:30N 35°23' E 139°51'0 0.5
2018-Feb-24 01:00N 35°23' E 139°50'5 9.8
2018-Feb-24 00:31N 35°20' E 139°46'510.1
2018-Feb-24 00:00N 35°17' E 139°41'0 0.0
2018-Feb-23 23:30N 35°17' E 139°41'0 0.0
2018-Feb-23 23:00N 35°17' E 139°41'0 0.0
2018-Feb-23 22:30N 35°17' E 139°41'0 0.0
2018-Feb-23 21:59N 35°17' E 139°41'0 0.0
2018-Feb-23 21:30N 35°17' E 139°41'0 0.0
2018-Feb-23 21:01N 35°17' E 139°41'0 0.0
2018-Feb-23 20:30N 35°17' E 139°41'0 0.0
2018-Feb-23 20:00N 35°17' E 139°41'0 0.0
2018-Feb-23 19:30N 35°17' E 139°41'0 0.0
2018-Feb-23 19:00N 35°17' E 139°41'0 0.0
2018-Feb-23 18:31N 35°17' E 139°41'0 0.0
2018-Feb-23 18:00N 35°17' E 139°41'0 0.0
2018-Feb-23 17:30N 35°17' E 139°41'0 0.0
2018-Feb-23 17:00N 35°17' E 139°41'0 0.0
2018-Feb-23 16:31N 35°17' E 139°41'0 0.0
2018-Feb-23 15:59N 35°17' E 139°41'0 0.0
2018-Feb-23 15:30N 35°17' E 139°41'0 0.0
2018-Feb-23 15:00N 35°17' E 139°41'0 0.0
2018-Feb-23 14:30N 35°17' E 139°41'0 0.0
2018-Feb-23 14:00N 35°17' E 139°41'0 0.0
2018-Feb-23 13:30N 35°17' E 139°41'0 0.0
2018-Feb-23 13:00N 35°17' E 139°41'0 0.0
2018-Feb-23 12:31N 35°17' E 139°41'0 0.0
2018-Feb-23 12:01N 35°17' E 139°41'0 0.0
2018-Feb-23 11:30N 35°17' E 139°41'0 0.0
2018-Feb-23 11:00N 35°17' E 139°41'0 0.0
2018-Feb-23 10:30N 35°17' E 139°41'0 0.0
2018-Feb-23 10:00N 35°17' E 139°41'0 0.0
2018-Feb-23 09:30N 35°17' E 139°41'0 0.0
2018-Feb-23 09:00N 35°17' E 139°41'0 0.0
2018-Feb-23 08:30N 35°17' E 139°41'0 0.1
2018-Feb-23 08:01N 35°17' E 139°41'0 0.1
2018-Feb-23 07:30N 35°17' E 139°41'0 0.0
2018-Feb-23 07:00N 35°17' E 139°41'0 0.0
2018-Feb-23 06:30N 35°17' E 139°41'0 0.0
2018-Feb-23 06:00N 35°17' E 139°41'0 0.0
2018-Feb-23 05:31N 35°17' E 139°41'0 0.0
2018-Feb-23 05:00N 35°17' E 139°41'0 0.0
2018-Feb-23 04:29N 35°17' E 139°41'0 0.0
2018-Feb-23 04:00N 35°17' E 139°41'0 0.0
2018-Feb-23 03:30N 35°17' E 139°41'0 0.0
2018-Feb-23 03:00N 35°17' E 139°41'0 0.0
2018-Feb-23 02:30N 35°17' E 139°41'0 0.0
2018-Feb-23 02:00N 35°17' E 139°41'0 0.0
2018-Feb-23 01:30N 35°17' E 139°41'0 0.0
2018-Feb-23 01:00N 35°17' E 139°41'0 0.0
2018-Feb-23 00:30N 35°17' E 139°41'0 0.0
2018-Feb-23 00:00N 35°17' E 139°41'0 0.0
2018-Feb-22 23:30N 35°17' E 139°41'0 0.1
2018-Feb-22 23:00N 35°17' E 139°41'0 0.1
2018-Feb-22 22:29N 35°17' E 139°41'3 7.2
2018-Feb-22 22:00N 35°20' E 139°41'5 9.5
2018-Feb-22 21:31N 35°25' E 139°44'3 5.1
2018-Feb-22 21:00N 35°22' E 139°45'611.7
2018-Feb-22 20:31N 35°17' E 139°46'611.8
2018-Feb-22 20:00N 35°11' E 139°47'1 2.1
2018-Feb-22 19:30N 35°10' E 139°48'0 0.6
2018-Feb-22 19:01N 35°10' E 139°47'1 1.1
2018-Feb-22 18:30N 35°11' E 139°47'5 9.9
2018-Feb-22 18:00N 35°16' E 139°46'713.2
2018-Feb-22 17:30N 35°21' E 139°42'5 9.3
2018-Feb-22 17:00N 35°26' E 139°42'510.4
2018-Feb-22 16:31N 35°21' E 139°41'4 7.7
2018-Feb-22 16:00N 35°17' E 139°41'0 0.0
2018-Feb-22 15:30N 35°17' E 139°41'0 0.0
2018-Feb-22 15:00N 35°17' E 139°41'0 0.0
2018-Feb-22 14:30N 35°17' E 139°41'0 0.0
2018-Feb-22 14:00N 35°17' E 139°41'2 3.7
2018-Feb-22 13:31N 35°17' E 139°43'510.5
2018-Feb-22 13:00N 35°13' E 139°46'611.4
2018-Feb-22 12:31N 35°18' E 139°44'712.9
2018-Feb-22 12:00N 35°24' E 139°42'2 3.7
2018-Feb-22 11:31N 35°26' E 139°42'0 0.6
2018-Feb-22 11:00N 35°26' E 139°42'0 0.4
2018-Feb-22 10:30N 35°26' E 139°42'1 2.8
2018-Feb-22 10:00N 35°26' E 139°43'4 7.5
2018-Feb-22 09:31N 35°23' E 139°45'611.6
2018-Feb-22 09:01N 35°17' E 139°46'612.4
2018-Feb-22 08:30N 35°11' E 139°47'1 1.3
2018-Feb-22 08:00N 35°11' E 139°47'4 7.2
2018-Feb-22 07:30N 35°13' E 139°43'0 0.3
2018-Feb-22 06:54N 35°13' E 139°43'0 0.0
2018-Feb-22 06:27N 35°13' E 139°43'0 0.1
2018-Feb-22 05:59N 35°13' E 139°43'0 0.0
2018-Feb-22 05:30N 35°13' E 139°43'0 0.0
2018-Feb-22 05:00N 35°13' E 139°43'0 0.0
2018-Feb-22 04:29N 35°13' E 139°43'0 0.0
2018-Feb-22 03:58N 35°13' E 139°43'0 0.0
2018-Feb-22 03:30N 35°13' E 139°43'0 0.0
2018-Feb-22 02:55N 35°13' E 139°43'2 4.4
2018-Feb-22 02:30N 35°13' E 139°45'4 7.2
2018-Feb-22 02:00N 35°16' E 139°46'612.8
2018-Feb-22 01:30N 35°22' E 139°42'4 7.0
2018-Feb-22 01:00N 35°24' E 139°38'0 0.9
2018-Feb-22 00:30N 35°24' E 139°39'5 9.4
2018-Feb-22 00:00N 35°19' E 139°41'2 4.9
2018-Feb-21 23:30N 35°17' E 139°41'0 0.0
2018-Feb-21 23:00N 35°17' E 139°41'0 0.0
2018-Feb-21 22:30N 35°17' E 139°41'0 0.0
2018-Feb-21 22:00N 35°17' E 139°41'0 0.0
2018-Feb-21 21:31N 35°17' E 139°41'0 0.0
2018-Feb-21 21:00N 35°17' E 139°41'0 0.0
2018-Feb-21 20:30N 35°17' E 139°41'0 0.0
2018-Feb-21 20:00N 35°17' E 139°41'0 0.0
2018-Feb-21 19:30N 35°17' E 139°41'0 0.0
2018-Feb-21 19:01N 35°17' E 139°41'0 0.0
2018-Feb-21 18:30N 35°17' E 139°41'0 0.0
2018-Feb-21 17:57N 35°17' E 139°41'0 0.0
2018-Feb-21 17:30N 35°17' E 139°41'0 0.0
2018-Feb-21 17:00N 35°17' E 139°41'0 0.0
2018-Feb-21 16:30N 35°17' E 139°41'0 0.0
2018-Feb-21 16:00N 35°17' E 139°41'0 0.0
2018-Feb-21 15:31N 35°17' E 139°41'0 0.0
2018-Feb-21 15:00N 35°17' E 139°41'0 0.0
2018-Feb-21 14:30N 35°17' E 139°41'0 0.0
2018-Feb-21 14:00N 35°17' E 139°41'0 0.0
2018-Feb-21 13:30N 35°17' E 139°41'0 0.0
2018-Feb-21 13:00N 35°17' E 139°41'0 0.0
2018-Feb-21 12:30N 35°17' E 139°41'0 0.0
2018-Feb-21 12:00N 35°17' E 139°41'0 0.0
2018-Feb-21 11:30N 35°17' E 139°41'0 0.0
2018-Feb-21 10:59N 35°17' E 139°41'0 0.0
2018-Feb-21 10:30N 35°17' E 139°41'0 0.0
2018-Feb-21 10:00N 35°17' E 139°41'0 0.0
2018-Feb-21 09:30N 35°17' E 139°41'0 0.0
2018-Feb-21 09:01N 35°17' E 139°41'0 0.0
2018-Feb-21 08:30N 35°17' E 139°41'0 0.0
2018-Feb-21 08:00N 35°17' E 139°41'0 0.0
2018-Feb-21 07:30N 35°17' E 139°41'0 0.0
2018-Feb-21 07:01N 35°17' E 139°41'0 0.0
2018-Feb-21 06:30N 35°17' E 139°41'0 0.0
2018-Feb-21 05:59N 35°17' E 139°41'0 0.0
2018-Feb-21 05:30N 35°17' E 139°41'0 0.0
2018-Feb-21 05:00N 35°17' E 139°41'0 0.0
2018-Feb-21 04:30N 35°17' E 139°41'0 0.0
2018-Feb-21 04:00N 35°17' E 139°41'0 0.0
2018-Feb-21 03:30N 35°17' E 139°41'0 0.0
2018-Feb-21 02:58N 35°17' E 139°41'0 0.0
2018-Feb-21 02:30N 35°17' E 139°41'0 0.0
2018-Feb-21 02:00N 35°17' E 139°41'0 0.0
2018-Feb-21 01:30N 35°17' E 139°41'0 0.0
2018-Feb-21 01:00N 35°17' E 139°41'3 5.2
2018-Feb-21 00:30N 35°19' E 139°42'510.8
2018-Feb-21 00:00N 35°23' E 139°47'4 7.3
2018-Feb-20 23:30N 35°26' E 139°50'1 1.6
2018-Feb-20 23:00N 35°25' E 139°49'4 8.6
2018-Feb-20 22:30N 35°22' E 139°45'510.9
2018-Feb-20 22:00N 35°17' E 139°46'510.5
2018-Feb-20 21:30N 35°11' E 139°47'1 1.7
2018-Feb-20 21:00N 35°11' E 139°46'3 6.7
2018-Feb-20 20:30N 35°13' E 139°43'3 6.5
2018-Feb-20 20:00N 35°16' E 139°45'4 7.5
2018-Feb-20 19:30N 35°17' E 139°41'0 0.0
2018-Feb-20 18:59N 35°17' E 139°41'0 0.0
2018-Feb-20 18:30N 35°17' E 139°41'0 0.0
2018-Feb-20 18:00N 35°17' E 139°41'0 0.0
2018-Feb-20 17:30N 35°17' E 139°41'0 0.0
2018-Feb-20 17:00N 35°17' E 139°41'0 0.0
2018-Feb-20 16:30N 35°17' E 139°41'0 0.0
2018-Feb-20 16:00N 35°17' E 139°41'0 0.0
2018-Feb-20 15:30N 35°17' E 139°41'0 0.0
2018-Feb-20 15:01N 35°17' E 139°41'0 0.0
2018-Feb-20 14:30N 35°17' E 139°41'0 0.0
2018-Feb-20 14:00N 35°17' E 139°41'0 0.0
2018-Feb-20 13:31N 35°17' E 139°41'0 0.0
2018-Feb-20 13:00N 35°17' E 139°41'0 0.0
2018-Feb-20 12:30N 35°17' E 139°41'0 0.0
2018-Feb-20 12:00N 35°17' E 139°41'0 0.0
2018-Feb-20 11:30N 35°17' E 139°41'0 0.0
2018-Feb-20 11:00N 35°17' E 139°41'0 0.0
2018-Feb-20 10:30N 35°17' E 139°41'0 0.0
2018-Feb-20 10:01N 35°17' E 139°41'0 0.0
2018-Feb-20 09:29N 35°17' E 139°41'0 0.0
2018-Feb-20 08:59N 35°17' E 139°41'0 0.0
2018-Feb-20 08:31N 35°17' E 139°41'0 0.6
2018-Feb-20 08:00N 35°17' E 139°41'0 0.2
2018-Feb-20 07:30N 35°17' E 139°41'0 0.4
2018-Feb-20 07:00N 35°17' E 139°41'1 1.2
2018-Feb-20 06:30N 35°17' E 139°41'510.2
2018-Feb-20 06:00N 35°22' E 139°41'4 8.5
2018-Feb-20 05:30N 35°25' E 139°46'611.3
2018-Feb-20 05:00N 35°29' E 139°51'1 2.6
2018-Feb-20 04:30N 35°29' E 139°52'611.0
2018-Feb-20 04:00N 35°25' E 139°47'611.8
2018-Feb-20 03:30N 35°20' E 139°44'611.5
2018-Feb-20 03:00N 35°14' E 139°47'5 8.8
2018-Feb-20 02:28N 35°10' E 139°47'611.1
2018-Feb-20 01:58N 35°15' E 139°45'4 9.5
2018-Feb-20 01:30N 35°17' E 139°41'0 0.0
2018-Feb-20 01:00N 35°17' E 139°41'0 0.0
2018-Feb-20 00:30N 35°17' E 139°41'0 0.0
2018-Feb-20 00:00N 35°17' E 139°41'0 0.0
2018-Feb-19 23:30N 35°17' E 139°41'0 0.0
2018-Feb-19 23:01N 35°17' E 139°41'0 0.3
2018-Feb-19 22:30N 35°17' E 139°41'1 1.4
2018-Feb-19 22:01N 35°17' E 139°41'0 0.4
2018-Feb-19 21:30N 35°18' E 139°42'1 2.0
2018-Feb-19 21:00N 35°17' E 139°41'0 0.0
2018-Feb-19 20:30N 35°17' E 139°41'0 0.0
2018-Feb-19 19:59N 35°17' E 139°41'0 0.0
2018-Feb-19 19:30N 35°17' E 139°41'0 0.0
2018-Feb-19 19:00N 35°17' E 139°41'0 0.0
2018-Feb-19 18:29N 35°17' E 139°41'0 0.0
2018-Feb-19 18:00N 35°17' E 139°41'0 0.0
2018-Feb-19 17:30N 35°17' E 139°41'0 0.0
2018-Feb-19 17:00N 35°17' E 139°41'0 0.0
2018-Feb-19 16:29N 35°17' E 139°41'0 0.0
2018-Feb-19 16:00N 35°17' E 139°41'0 0.0
2018-Feb-19 15:30N 35°17' E 139°41'0 0.0
2018-Feb-19 15:00N 35°17' E 139°41'0 0.0
2018-Feb-19 14:30N 35°17' E 139°41'0 0.0
2018-Feb-19 14:00N 35°17' E 139°41'0 0.0
2018-Feb-19 13:29N 35°17' E 139°41'0 0.0
2018-Feb-19 13:00N 35°17' E 139°41'0 0.0
2018-Feb-19 12:30N 35°17' E 139°41'0 0.0
2018-Feb-19 12:00N 35°17' E 139°41'0 0.0
2018-Feb-19 11:30N 35°17' E 139°41'0 0.0
2018-Feb-19 11:00N 35°17' E 139°41'0 0.0
2018-Feb-19 10:30N 35°17' E 139°41'0 0.0
2018-Feb-19 10:00N 35°17' E 139°41'0 0.0
2018-Feb-19 09:30N 35°17' E 139°41'0 0.0
2018-Feb-19 09:00N 35°17' E 139°41'0 0.0
2018-Feb-19 08:30N 35°17' E 139°41'0 0.0
2018-Feb-19 08:00N 35°17' E 139°41'0 0.0
2018-Feb-19 07:30N 35°17' E 139°41'0 0.0
2018-Feb-19 07:00N 35°17' E 139°41'0 0.0
2018-Feb-19 06:29N 35°17' E 139°41'0 0.0
2018-Feb-19 06:00N 35°17' E 139°41'0 0.0
2018-Feb-19 05:30N 35°17' E 139°41'4 8.1
2018-Feb-19 05:01N 35°16' E 139°45'2 3.2
2018-Feb-19 04:30N 35°14' E 139°46'612.6
2018-Feb-19 04:00N 35°20' E 139°42'713.3
2018-Feb-19 03:30N 35°26' E 139°42'1 1.2
2018-Feb-19 03:00N 35°27' E 139°42'0 0.0
2018-Feb-19 02:30N 35°27' E 139°42'0 0.0
2018-Feb-19 02:00N 35°27' E 139°42'0 0.0
2018-Feb-19 01:30N 35°27' E 139°42'0 0.0
2018-Feb-19 01:01N 35°27' E 139°42'0 0.0
2018-Feb-19 00:30N 35°27' E 139°42'0 0.0
2018-Feb-19 00:00N 35°27' E 139°42'0 0.0
2018-Feb-18 23:30N 35°27' E 139°42'0 0.1
2018-Feb-18 23:00N 35°27' E 139°42'2 4.7
2018-Feb-18 22:30N 35°26' E 139°45'5 9.9
2018-Feb-18 22:01N 35°21' E 139°45'610.8
2018-Feb-18 21:30N 35°16' E 139°46'5 9.6
2018-Feb-18 21:01N 35°11' E 139°47'2 3.9
2018-Feb-18 20:30N 35°13' E 139°46'510.6
2018-Feb-18 20:00N 35°18' E 139°42'1 2.9
2018-Feb-18 19:30N 35°17' E 139°41'0 0.0
2018-Feb-18 19:00N 35°17' E 139°41'0 0.0
2018-Feb-18 18:30N 35°17' E 139°41'0 0.0
2018-Feb-18 18:00N 35°17' E 139°41'0 0.0
2018-Feb-18 17:31N 35°17' E 139°41'0 0.0
2018-Feb-18 17:00N 35°17' E 139°41'0 0.0
2018-Feb-18 16:30N 35°17' E 139°41'0 0.0
2018-Feb-18 16:00N 35°17' E 139°41'0 0.0
2018-Feb-18 15:30N 35°17' E 139°41'0 0.0
2018-Feb-18 15:00N 35°17' E 139°41'0 0.0
2018-Feb-18 14:30N 35°17' E 139°41'0 0.0
2018-Feb-18 14:00N 35°17' E 139°41'0 0.0
2018-Feb-18 13:30N 35°17' E 139°41'0 0.0
2018-Feb-18 13:00N 35°17' E 139°41'0 0.0
2018-Feb-18 12:30N 35°17' E 139°41'0 0.0
2018-Feb-18 12:00N 35°17' E 139°41'0 0.0
2018-Feb-18 11:30N 35°17' E 139°41'0 0.0
2018-Feb-18 11:01N 35°17' E 139°41'0 0.0
2018-Feb-18 10:30N 35°17' E 139°41'0 0.0
2018-Feb-18 10:00N 35°17' E 139°41'3 6.8
2018-Feb-18 09:31N 35°20' E 139°42'611.4
2018-Feb-18 09:00N 35°25' E 139°46'611.4
2018-Feb-18 08:30N 35°19' E 139°44'713.0
2018-Feb-18 08:00N 35°13' E 139°47'2 4.3
2018-Feb-18 07:29N 35°11' E 139°47'510.2
2018-Feb-18 07:00N 35°16' E 139°45'510.7
2018-Feb-18 06:30N 35°20' E 139°42'3 5.2
2018-Feb-18 06:01N 35°23' E 139°40'0 0.0
2018-Feb-18 05:30N 35°23' E 139°40'0 0.0
2018-Feb-18 05:00N 35°23' E 139°40'0 0.0
2018-Feb-18 04:30N 35°23' E 139°40'0 0.0
2018-Feb-18 04:00N 35°23' E 139°40'0 0.0
2018-Feb-18 03:30N 35°23' E 139°40'3 6.1
2018-Feb-18 03:00N 35°23' E 139°44'2 3.2
2018-Feb-18 02:30N 35°22' E 139°45'510.5
2018-Feb-18 02:00N 35°16' E 139°46'611.6
2018-Feb-18 01:30N 35°11' E 139°47'4 8.5
2018-Feb-18 01:00N 35°15' E 139°46'5 9.5
2018-Feb-18 00:30N 35°17' E 139°41'0 0.2
2018-Feb-18 00:00N 35°17' E 139°41'0 0.0
2018-Feb-17 23:30N 35°17' E 139°41'0 0.0
2018-Feb-17 23:01N 35°17' E 139°41'0 0.0
2018-Feb-17 22:30N 35°17' E 139°41'0 0.0
2018-Feb-17 22:00N 35°17' E 139°41'0 0.0
2018-Feb-17 21:30N 35°17' E 139°41'0 0.0
2018-Feb-17 21:01N 35°17' E 139°41'0 0.0
2018-Feb-17 20:30N 35°17' E 139°41'0 0.0
2018-Feb-17 20:00N 35°17' E 139°41'0 0.0
2018-Feb-17 19:31N 35°17' E 139°41'0 0.0
2018-Feb-17 19:00N 35°17' E 139°41'0 0.0
2018-Feb-17 18:30N 35°17' E 139°41'0 0.0
2018-Feb-17 18:01N 35°17' E 139°41'0 0.0
2018-Feb-17 17:30N 35°17' E 139°41'0 0.0
2018-Feb-17 17:00N 35°17' E 139°41'0 0.0
2018-Feb-17 16:31N 35°17' E 139°41'0 0.0
2018-Feb-17 16:00N 35°17' E 139°41'0 0.0
2018-Feb-17 15:31N 35°17' E 139°41'0 0.0
2018-Feb-17 15:00N 35°17' E 139°41'0 0.0
2018-Feb-17 14:30N 35°17' E 139°41'0 0.0
2018-Feb-17 13:59N 35°17' E 139°41'0 0.0
2018-Feb-17 13:30N 35°17' E 139°41'0 0.0
2018-Feb-17 13:01N 35°17' E 139°41'0 0.0
2018-Feb-17 12:30N 35°17' E 139°41'0 0.0
2018-Feb-17 12:00N 35°17' E 139°41'0 0.0
2018-Feb-17 11:29N 35°17' E 139°41'0 0.0
2018-Feb-17 11:00N 35°17' E 139°41'0 0.0
2018-Feb-17 10:30N 35°17' E 139°41'0 0.0
2018-Feb-17 10:00N 35°17' E 139°41'0 0.0
2018-Feb-17 09:31N 35°17' E 139°41'0 0.0
2018-Feb-17 09:00N 35°17' E 139°41'0 0.0
2018-Feb-17 08:30N 35°17' E 139°41'0 0.0
2018-Feb-17 08:00N 35°17' E 139°41'0 0.0
2018-Feb-17 07:30N 35°17' E 139°41'0 0.0
2018-Feb-17 07:01N 35°17' E 139°41'0 0.0
2018-Feb-17 06:29N 35°17' E 139°41'0 0.0
2018-Feb-17 06:00N 35°17' E 139°41'0 0.0
2018-Feb-17 05:30N 35°17' E 139°41'0 0.0
2018-Feb-17 05:00N 35°17' E 139°41'0 0.0
2018-Feb-17 04:30N 35°17' E 139°41'0 0.0
2018-Feb-17 04:01N 35°17' E 139°41'0 0.0
2018-Feb-17 03:30N 35°17' E 139°41'0 0.0
2018-Feb-17 03:00N 35°17' E 139°41'0 0.0
2018-Feb-17 02:30N 35°17' E 139°41'0 0.8
2018-Feb-17 02:01N 35°17' E 139°41'5 9.9
2018-Feb-17 01:30N 35°22' E 139°41'4 7.1
2018-Feb-17 01:00N 35°19' E 139°44'611.8
2018-Feb-17 00:30N 35°14' E 139°47'4 7.4
2018-Feb-16 23:59N 35°10' E 139°47'510.0
2018-Feb-16 23:30N 35°15' E 139°46'5 9.5
2018-Feb-16 23:00N 35°17' E 139°41'0 0.6
2018-Feb-16 22:30N 35°17' E 139°41'0 0.0
2018-Feb-16 22:00N 35°17' E 139°41'0 0.0
2018-Feb-16 21:30N 35°17' E 139°41'0 0.0
2018-Feb-16 21:00N 35°17' E 139°41'0 0.0
2018-Feb-16 20:31N 35°17' E 139°41'0 0.0
2018-Feb-16 20:00N 35°17' E 139°41'0 0.0
2018-Feb-16 19:31N 35°17' E 139°41'0 0.0
2018-Feb-16 19:00N 35°17' E 139°41'0 0.0
2018-Feb-16 18:30N 35°17' E 139°41'0 0.0
2018-Feb-16 17:59N 35°17' E 139°41'0 0.0
2018-Feb-16 17:30N 35°17' E 139°41'0 0.0
2018-Feb-16 17:00N 35°17' E 139°41'0 0.0
2018-Feb-16 16:30N 35°17' E 139°41'0 0.0
2018-Feb-16 16:00N 35°17' E 139°41'0 0.0
2018-Feb-16 15:30N 35°17' E 139°41'0 0.0
2018-Feb-16 15:00N 35°17' E 139°41'0 0.0
2018-Feb-16 14:30N 35°17' E 139°41'0 0.0
2018-Feb-16 14:00N 35°17' E 139°41'0 0.0
2018-Feb-16 13:30N 35°17' E 139°41'0 0.0
2018-Feb-16 13:00N 35°17' E 139°41'0 0.0
2018-Feb-16 12:30N 35°17' E 139°41'0 0.0
2018-Feb-16 12:00N 35°17' E 139°41'0 0.0
2018-Feb-16 11:31N 35°17' E 139°41'0 0.0
2018-Feb-16 11:00N 35°17' E 139°41'0 0.0
2018-Feb-16 10:30N 35°17' E 139°41'0 0.0
2018-Feb-16 10:00N 35°17' E 139°41'0 0.0
2018-Feb-16 09:31N 35°17' E 139°41'3 5.5
2018-Feb-16 08:59N 35°17' E 139°44'4 8.6
2018-Feb-16 08:29N 35°13' E 139°46'611.7
2018-Feb-16 08:00N 35°18' E 139°44'713.3
2018-Feb-16 07:30N 35°25' E 139°42'2 3.3
2018-Feb-16 07:00N 35°26' E 139°42'0 0.8
2018-Feb-16 06:30N 35°26' E 139°42'0 0.0
2018-Feb-16 06:00N 35°26' E 139°42'0 0.0
2018-Feb-16 05:30N 35°26' E 139°42'0 0.1
2018-Feb-16 05:00N 35°26' E 139°42'0 0.0
2018-Feb-16 04:30N 35°26' E 139°42'0 0.0
2018-Feb-16 04:00N 35°26' E 139°42'5 9.8
2018-Feb-16 03:30N 35°23' E 139°47'4 7.7
2018-Feb-16 03:00N 35°20' E 139°44'612.2
2018-Feb-16 02:31N 35°14' E 139°47'4 8.8
2018-Feb-16 02:00N 35°10' E 139°47'3 6.3
2018-Feb-16 01:30N 35°13' E 139°46'611.3
2018-Feb-16 01:01N 35°18' E 139°43'611.2
2018-Feb-16 00:31N 35°24' E 139°42'4 7.1
2018-Feb-16 00:00N 35°25' E 139°46'611.2
2018-Feb-15 23:31N 35°20' E 139°44'611.8
2018-Feb-15 23:00N 35°14' E 139°47'4 8.6
2018-Feb-15 22:30N 35°10' E 139°46'510.9
2018-Feb-15 22:00N 35°15' E 139°46'  
Track history (hours):
 
Tides and Currents Weather Stations Pressure Air Temp Water Temp Dewpoint Dewpoint Depression Visibility Wind Speed Wind Dir Waves Ship Positions

Kanto Maru

Last reported at 2018-Feb-25 21:30 UTC. Time now 2018-Feb-25 21:36 UTC.
Position N 35°20' E 139°44'.

Length 40 m.

Type: Tug. MMSI: 431000841.

Date/timePositionNaut miles runAvg speedWind from/ knotsBaromVisibWave heightAir tempDewpointWater temp
2018-Feb-25 21:30N 35°20' E 139°44'611.3
2018-Feb-25 21:00N 35°15' E 139°47'5 9.9
2018-Feb-25 20:30N 35°10' E 139°47'5 9.3
2018-Feb-25 20:00N 35°14' E 139°46'5 9.6
2018-Feb-25 19:30N 35°17' E 139°41'1 1.3
2018-Feb-25 19:00N 35°17' E 139°41'0 0.0
2018-Feb-25 18:30N 35°17' E 139°41'0 0.0
2018-Feb-25 18:00N 35°17' E 139°41'0 0.0
2018-Feb-25 17:30N 35°17' E 139°41'0 0.0
2018-Feb-25 17:00N 35°17' E 139°41'0 0.0
2018-Feb-25 16:30N 35°17' E 139°41'0 0.0
2018-Feb-25 16:00N 35°17' E 139°41'0 0.0
2018-Feb-25 15:31N 35°17' E 139°41'0 0.0
2018-Feb-25 15:00N 35°17' E 139°41'0 0.0
2018-Feb-25 14:30N 35°17' E 139°41'0 0.0
2018-Feb-25 14:00N 35°17' E 139°41'0 0.0
2018-Feb-25 13:30N 35°17' E 139°41'0 0.0
2018-Feb-25 13:00N 35°17' E 139°41'0 0.0
2018-Feb-25 12:31N 35°17' E 139°41'0 0.0
2018-Feb-25 12:00N 35°17' E 139°41'0 0.0
2018-Feb-25 11:30N 35°17' E 139°41'0 0.0
2018-Feb-25 11:00N 35°17' E 139°41'0 0.0
2018-Feb-25 10:30N 35°17' E 139°41'0 0.0
2018-Feb-25 10:00N 35°17' E 139°41'0 0.0
2018-Feb-25 09:30N 35°17' E 139°41'0 0.0
2018-Feb-25 09:00N 35°17' E 139°41'0 0.0
2018-Feb-25 08:30N 35°17' E 139°41'0 0.0
2018-Feb-25 08:00N 35°17' E 139°41'0 0.0
2018-Feb-25 07:30N 35°17' E 139°41'0 0.0
2018-Feb-25 07:00N 35°17' E 139°41'0 0.0
2018-Feb-25 06:31N 35°17' E 139°41'0 0.0
2018-Feb-25 06:00N 35°17' E 139°41'4 7.1
2018-Feb-25 05:30N 35°20' E 139°42'611.0
2018-Feb-25 05:00N 35°25' E 139°46'612.4
2018-Feb-25 04:31N 35°19' E 139°44'611.5
2018-Feb-25 04:00N 35°13' E 139°47'3 6.9
2018-Feb-25 03:30N 35°10' E 139°47'0 0.6
2018-Feb-25 03:01N 35°10' E 139°47'510.0
2018-Feb-25 02:30N 35°15' E 139°46'612.8
2018-Feb-25 02:00N 35°21' E 139°42'611.6
2018-Feb-25 01:29N 35°27' E 139°43'1 1.1
2018-Feb-25 01:00N 35°27' E 139°44'1 1.2
2018-Feb-25 00:30N 35°27' E 139°43'510.7
2018-Feb-25 00:00N 35°22' E 139°42'5 9.4
2018-Feb-24 23:31N 35°17' E 139°41'0 0.2
2018-Feb-24 23:00N 35°17' E 139°41'0 0.0
2018-Feb-24 22:30N 35°17' E 139°41'0 0.0
2018-Feb-24 22:00N 35°17' E 139°41'0 0.0
2018-Feb-24 21:31N 35°17' E 139°41'0 0.1
2018-Feb-24 21:00N 35°17' E 139°41'0 0.0
2018-Feb-24 20:30N 35°17' E 139°41'0 0.0
2018-Feb-24 20:00N 35°17' E 139°41'0 0.1
2018-Feb-24 19:30N 35°17' E 139°41'0 0.0
2018-Feb-24 18:59N 35°17' E 139°41'0 0.0
2018-Feb-24 18:31N 35°17' E 139°41'0 0.0
2018-Feb-24 18:00N 35°17' E 139°41'0 0.0
2018-Feb-24 17:30N 35°17' E 139°41'0 0.0
2018-Feb-24 17:00N 35°17' E 139°41'0 0.0
2018-Feb-24 16:30N 35°17' E 139°41'0 0.0
2018-Feb-24 16:01N 35°17' E 139°41'0 0.0
2018-Feb-24 15:30N 35°17' E 139°41'0 0.0
2018-Feb-24 15:00N 35°17' E 139°41'0 0.0
2018-Feb-24 14:31N 35°17' E 139°41'0 0.0
2018-Feb-24 14:00N 35°17' E 139°41'0 0.0
2018-Feb-24 13:31N 35°17' E 139°41'0 0.0
2018-Feb-24 13:00N 35°17' E 139°41'0 0.0
2018-Feb-24 12:30N 35°17' E 139°41'0 0.1
2018-Feb-24 12:00N 35°17' E 139°41'0 0.1
2018-Feb-24 11:30N 35°17' E 139°41'0 0.0
2018-Feb-24 11:00N 35°17' E 139°41'0 0.0
2018-Feb-24 10:30N 35°17' E 139°41'0 0.1
2018-Feb-24 10:00N 35°17' E 139°41'0 0.0
2018-Feb-24 09:30N 35°17' E 139°41'0 0.1
2018-Feb-24 09:00N 35°17' E 139°41'0 0.1
2018-Feb-24 08:29N 35°17' E 139°41'0 0.1
2018-Feb-24 08:00N 35°17' E 139°41'0 0.0
2018-Feb-24 07:30N 35°17' E 139°41'0 0.0
2018-Feb-24 07:00N 35°17' E 139°41'0 0.0
2018-Feb-24 06:30N 35°17' E 139°41'0 0.0
2018-Feb-24 06:00N 35°17' E 139°41'0 0.0
2018-Feb-24 05:30N 35°17' E 139°41'0 0.0
2018-Feb-24 05:00N 35°17' E 139°41'1 1.4
2018-Feb-24 04:31N 35°17' E 139°41'4 8.8
2018-Feb-24 04:00N 35°15' E 139°46'1 1.5
2018-Feb-24 03:30N 35°15' E 139°46'612.9
2018-Feb-24 03:00N 35°20' E 139°43'510.6
2018-Feb-24 02:30N 35°25' E 139°45'5 9.6
2018-Feb-24 02:00N 35°23' E 139°50'0 0.9
2018-Feb-24 01:30N 35°23' E 139°51'0 0.5
2018-Feb-24 01:00N 35°23' E 139°50'5 9.8
2018-Feb-24 00:31N 35°20' E 139°46'510.1
2018-Feb-24 00:00N 35°17' E 139°41'0 0.0
2018-Feb-23 23:30N 35°17' E 139°41'0 0.0
2018-Feb-23 23:00N 35°17' E 139°41'0 0.0
2018-Feb-23 22:30N 35°17' E 139°41'0 0.0
2018-Feb-23 21:59N 35°17' E 139°41'0 0.0
2018-Feb-23 21:30N 35°17' E 139°41'0 0.0
2018-Feb-23 21:01N 35°17' E 139°41'0 0.0
2018-Feb-23 20:30N 35°17' E 139°41'0 0.0
2018-Feb-23 20:00N 35°17' E 139°41'0 0.0
2018-Feb-23 19:30N 35°17' E 139°41'0 0.0
2018-Feb-23 19:00N 35°17' E 139°41'0 0.0
2018-Feb-23 18:31N 35°17' E 139°41'0 0.0
2018-Feb-23 18:00N 35°17' E 139°41'0 0.0
2018-Feb-23 17:30N 35°17' E 139°41'0 0.0
2018-Feb-23 17:00N 35°17' E 139°41'0 0.0
2018-Feb-23 16:31N 35°17' E 139°41'0 0.0
2018-Feb-23 15:59N 35°17' E 139°41'0 0.0
2018-Feb-23 15:30N 35°17' E 139°41'0 0.0
2018-Feb-23 15:00N 35°17' E 139°41'0 0.0
2018-Feb-23 14:30N 35°17' E 139°41'0 0.0
2018-Feb-23 14:00N 35°17' E 139°41'0 0.0
2018-Feb-23 13:30N 35°17' E 139°41'0 0.0
2018-Feb-23 13:00N 35°17' E 139°41'0 0.0
2018-Feb-23 12:31N 35°17' E 139°41'0 0.0
2018-Feb-23 12:01N 35°17' E 139°41'0 0.0
2018-Feb-23 11:30N 35°17' E 139°41'0 0.0
2018-Feb-23 11:00N 35°17' E 139°41'0 0.0
2018-Feb-23 10:30N 35°17' E 139°41'0 0.0
2018-Feb-23 10:00N 35°17' E 139°41'0 0.0
2018-Feb-23 09:30N 35°17' E 139°41'0 0.0
2018-Feb-23 09:00N 35°17' E 139°41'0 0.0
2018-Feb-23 08:30N 35°17' E 139°41'0 0.1
2018-Feb-23 08:01N 35°17' E 139°41'0 0.1
2018-Feb-23 07:30N 35°17' E 139°41'0 0.0
2018-Feb-23 07:00N 35°17' E 139°41'0 0.0
2018-Feb-23 06:30N 35°17' E 139°41'0 0.0
2018-Feb-23 06:00N 35°17' E 139°41'0 0.0
2018-Feb-23 05:31N 35°17' E 139°41'0 0.0
2018-Feb-23 05:00N 35°17' E 139°41'0 0.0
2018-Feb-23 04:29N 35°17' E 139°41'0 0.0
2018-Feb-23 04:00N 35°17' E 139°41'0 0.0
2018-Feb-23 03:30N 35°17' E 139°41'0 0.0
2018-Feb-23 03:00N 35°17' E 139°41'0 0.0
2018-Feb-23 02:30N 35°17' E 139°41'0 0.0
2018-Feb-23 02:00N 35°17' E 139°41'0 0.0
2018-Feb-23 01:30N 35°17' E 139°41'0 0.0
2018-Feb-23 01:00N 35°17' E 139°41'0 0.0
2018-Feb-23 00:30N 35°17' E 139°41'0 0.0
2018-Feb-23 00:00N 35°17' E 139°41'0 0.0
2018-Feb-22 23:30N 35°17' E 139°41'0 0.1
2018-Feb-22 23:00N 35°17' E 139°41'0 0.1
2018-Feb-22 22:29N 35°17' E 139°41'3 7.2
2018-Feb-22 22:00N 35°20' E 139°41'5 9.5
2018-Feb-22 21:31N 35°25' E 139°44'3 5.1
2018-Feb-22 21:00N 35°22' E 139°45'611.7
2018-Feb-22 20:31N 35°17' E 139°46'611.8
2018-Feb-22 20:00N 35°11' E 139°47'1 2.1
2018-Feb-22 19:30N 35°10' E 139°48'0 0.6
2018-Feb-22 19:01N 35°10' E 139°47'1 1.1
2018-Feb-22 18:30N 35°11' E 139°47'5 9.9
2018-Feb-22 18:00N 35°16' E 139°46'713.2
2018-Feb-22 17:30N 35°21' E 139°42'5 9.3
2018-Feb-22 17:00N 35°26' E 139°42'510.4
2018-Feb-22 16:31N 35°21' E 139°41'4 7.7
2018-Feb-22 16:00N 35°17' E 139°41'0 0.0
2018-Feb-22 15:30N 35°17' E 139°41'0 0.0
2018-Feb-22 15:00N 35°17' E 139°41'0 0.0
2018-Feb-22 14:30N 35°17' E 139°41'0 0.0
2018-Feb-22 14:00N 35°17' E 139°41'2 3.7
2018-Feb-22 13:31N 35°17' E 139°43'510.5
2018-Feb-22 13:00N 35°13' E 139°46'611.4
2018-Feb-22 12:31N 35°18' E 139°44'712.9
2018-Feb-22 12:00N 35°24' E 139°42'2 3.7
2018-Feb-22 11:31N 35°26' E 139°42'0 0.6
2018-Feb-22 11:00N 35°26' E 139°42'0 0.4
2018-Feb-22 10:30N 35°26' E 139°42'1 2.8
2018-Feb-22 10:00N 35°26' E 139°43'4 7.5
2018-Feb-22 09:31N 35°23' E 139°45'611.6
2018-Feb-22 09:01N 35°17' E 139°46'612.4
2018-Feb-22 08:30N 35°11' E 139°47'1 1.3
2018-Feb-22 08:00N 35°11' E 139°47'4 7.2
2018-Feb-22 07:30N 35°13' E 139°43'0 0.3
2018-Feb-22 06:54N 35°13' E 139°43'0 0.0
2018-Feb-22 06:27N 35°13' E 139°43'0 0.1
2018-Feb-22 05:59N 35°13' E 139°43'0 0.0
2018-Feb-22 05:30N 35°13' E 139°43'0 0.0
2018-Feb-22 05:00N 35°13' E 139°43'0 0.0
2018-Feb-22 04:29N 35°13' E 139°43'0 0.0
2018-Feb-22 03:58N 35°13' E 139°43'0 0.0
2018-Feb-22 03:30N 35°13' E 139°43'0 0.0
2018-Feb-22 02:55N 35°13' E 139°43'2 4.4
2018-Feb-22 02:30N 35°13' E 139°45'4 7.2
2018-Feb-22 02:00N 35°16' E 139°46'612.8
2018-Feb-22 01:30N 35°22' E 139°42'4 7.0
2018-Feb-22 01:00N 35°24' E 139°38'0 0.9
2018-Feb-22 00:30N 35°24' E 139°39'5 9.4
2018-Feb-22 00:00N 35°19' E 139°41'2 4.9
2018-Feb-21 23:30N 35°17' E 139°41'0 0.0
2018-Feb-21 23:00N 35°17' E 139°41'0 0.0
2018-Feb-21 22:30N 35°17' E 139°41'0 0.0
2018-Feb-21 22:00N 35°17' E 139°41'0 0.0
2018-Feb-21 21:31N 35°17' E 139°41'0 0.0
2018-Feb-21 21:00N 35°17' E 139°41'0 0.0
2018-Feb-21 20:30N 35°17' E 139°41'0 0.0
2018-Feb-21 20:00N 35°17' E 139°41'0 0.0
2018-Feb-21 19:30N 35°17' E 139°41'0 0.0
2018-Feb-21 19:01N 35°17' E 139°41'0 0.0
2018-Feb-21 18:30N 35°17' E 139°41'0 0.0
2018-Feb-21 17:57N 35°17' E 139°41'0 0.0
2018-Feb-21 17:30N 35°17' E 139°41'0 0.0
2018-Feb-21 17:00N 35°17' E 139°41'0 0.0
2018-Feb-21 16:30N 35°17' E 139°41'0 0.0
2018-Feb-21 16:00N 35°17' E 139°41'0 0.0
2018-Feb-21 15:31N 35°17' E 139°41'0 0.0
2018-Feb-21 15:00N 35°17' E 139°41'0 0.0
2018-Feb-21 14:30N 35°17' E 139°41'0 0.0
2018-Feb-21 14:00N 35°17' E 139°41'0 0.0
2018-Feb-21 13:30N 35°17' E 139°41'0 0.0
2018-Feb-21 13:00N 35°17' E 139°41'0 0.0
2018-Feb-21 12:30N 35°17' E 139°41'0 0.0
2018-Feb-21 12:00N 35°17' E 139°41'0 0.0
2018-Feb-21 11:30N 35°17' E 139°41'0 0.0
2018-Feb-21 10:59N 35°17' E 139°41'0 0.0
2018-Feb-21 10:30N 35°17' E 139°41'0 0.0
2018-Feb-21 10:00N 35°17' E 139°41'0 0.0
2018-Feb-21 09:30N 35°17' E 139°41'0 0.0
2018-Feb-21 09:01N 35°17' E 139°41'0 0.0
2018-Feb-21 08:30N 35°17' E 139°41'0 0.0
2018-Feb-21 08:00N 35°17' E 139°41'0 0.0
2018-Feb-21 07:30N 35°17' E 139°41'0 0.0
2018-Feb-21 07:01N 35°17' E 139°41'0 0.0
2018-Feb-21 06:30N 35°17' E 139°41'0 0.0
2018-Feb-21 05:59N 35°17' E 139°41'0 0.0
2018-Feb-21 05:30N 35°17' E 139°41'0 0.0
2018-Feb-21 05:00N 35°17' E 139°41'0 0.0
2018-Feb-21 04:30N 35°17' E 139°41'0 0.0
2018-Feb-21 04:00N 35°17' E 139°41'0 0.0
2018-Feb-21 03:30N 35°17' E 139°41'0 0.0
2018-Feb-21 02:58N 35°17' E 139°41'0 0.0
2018-Feb-21 02:30N 35°17' E 139°41'0 0.0
2018-Feb-21 02:00N 35°17' E 139°41'0 0.0
2018-Feb-21 01:30N 35°17' E 139°41'0 0.0
2018-Feb-21 01:00N 35°17' E 139°41'3 5.2
2018-Feb-21 00:30N 35°19' E 139°42'510.8
2018-Feb-21 00:00N 35°23' E 139°47'4 7.3
2018-Feb-20 23:30N 35°26' E 139°50'1 1.6
2018-Feb-20 23:00N 35°25' E 139°49'4 8.6
2018-Feb-20 22:30N 35°22' E 139°45'510.9
2018-Feb-20 22:00N 35°17' E 139°46'510.5
2018-Feb-20 21:30N 35°11' E 139°47'1 1.7
2018-Feb-20 21:00N 35°11' E 139°46'3 6.7
2018-Feb-20 20:30N 35°13' E 139°43'3 6.5
2018-Feb-20 20:00N 35°16' E 139°45'4 7.5
2018-Feb-20 19:30N 35°17' E 139°41'0 0.0
2018-Feb-20 18:59N 35°17' E 139°41'0 0.0
2018-Feb-20 18:30N 35°17' E 139°41'0 0.0
2018-Feb-20 18:00N 35°17' E 139°41'0 0.0
2018-Feb-20 17:30N 35°17' E 139°41'0 0.0
2018-Feb-20 17:00N 35°17' E 139°41'0 0.0
2018-Feb-20 16:30N 35°17' E 139°41'0 0.0
2018-Feb-20 16:00N 35°17' E 139°41'0 0.0
2018-Feb-20 15:30N 35°17' E 139°41'0 0.0
2018-Feb-20 15:01N 35°17' E 139°41'0 0.0
2018-Feb-20 14:30N 35°17' E 139°41'0 0.0
2018-Feb-20 14:00N 35°17' E 139°41'0 0.0
2018-Feb-20 13:31N 35°17' E 139°41'0 0.0
2018-Feb-20 13:00N 35°17' E 139°41'0 0.0
2018-Feb-20 12:30N 35°17' E 139°41'0 0.0
2018-Feb-20 12:00N 35°17' E 139°41'0 0.0
2018-Feb-20 11:30N 35°17' E 139°41'0 0.0
2018-Feb-20 11:00N 35°17' E 139°41'0 0.0
2018-Feb-20 10:30N 35°17' E 139°41'0 0.0
2018-Feb-20 10:01N 35°17' E 139°41'0 0.0
2018-Feb-20 09:29N 35°17' E 139°41'0 0.0
2018-Feb-20 08:59N 35°17' E 139°41'0 0.0
2018-Feb-20 08:31N 35°17' E 139°41'0 0.6
2018-Feb-20 08:00N 35°17' E 139°41'0 0.2
2018-Feb-20 07:30N 35°17' E 139°41'0 0.4
2018-Feb-20 07:00N 35°17' E 139°41'1 1.2
2018-Feb-20 06:30N 35°17' E 139°41'510.2
2018-Feb-20 06:00N 35°22' E 139°41'4 8.5
2018-Feb-20 05:30N 35°25' E 139°46'611.3
2018-Feb-20 05:00N 35°29' E 139°51'1 2.6
2018-Feb-20 04:30N 35°29' E 139°52'611.0
2018-Feb-20 04:00N 35°25' E 139°47'611.8
2018-Feb-20 03:30N 35°20' E 139°44'611.5
2018-Feb-20 03:00N 35°14' E 139°47'5 8.8
2018-Feb-20 02:28N 35°10' E 139°47'611.1
2018-Feb-20 01:58N 35°15' E 139°45'4 9.5
2018-Feb-20 01:30N 35°17' E 139°41'0 0.0
2018-Feb-20 01:00N 35°17' E 139°41'0 0.0
2018-Feb-20 00:30N 35°17' E 139°41'0 0.0
2018-Feb-20 00:00N 35°17' E 139°41'0 0.0
2018-Feb-19 23:30N 35°17' E 139°41'0 0.0
2018-Feb-19 23:01N 35°17' E 139°41'0 0.3
2018-Feb-19 22:30N 35°17' E 139°41'1 1.4
2018-Feb-19 22:01N 35°17' E 139°41'0 0.4
2018-Feb-19 21:30N 35°18' E 139°42'1 2.0
2018-Feb-19 21:00N 35°17' E 139°41'0 0.0
2018-Feb-19 20:30N 35°17' E 139°41'0 0.0
2018-Feb-19 19:59N 35°17' E 139°41'0 0.0
2018-Feb-19 19:30N 35°17' E 139°41'0 0.0
2018-Feb-19 19:00N 35°17' E 139°41'0 0.0
2018-Feb-19 18:29N 35°17' E 139°41'0 0.0
2018-Feb-19 18:00N 35°17' E 139°41'0 0.0
2018-Feb-19 17:30N 35°17' E 139°41'0 0.0
2018-Feb-19 17:00N 35°17' E 139°41'0 0.0
2018-Feb-19 16:29N 35°17' E 139°41'0 0.0
2018-Feb-19 16:00N 35°17' E 139°41'0 0.0
2018-Feb-19 15:30N 35°17' E 139°41'0 0.0
2018-Feb-19 15:00N 35°17' E 139°41'0 0.0
2018-Feb-19 14:30N 35°17' E 139°41'0 0.0
2018-Feb-19 14:00N 35°17' E 139°41'0 0.0
2018-Feb-19 13:29N 35°17' E 139°41'0 0.0
2018-Feb-19 13:00N 35°17' E 139°41'0 0.0
2018-Feb-19 12:30N 35°17' E 139°41'0 0.0
2018-Feb-19 12:00N 35°17' E 139°41'0 0.0
2018-Feb-19 11:30N 35°17' E 139°41'0 0.0
2018-Feb-19 11:00N 35°17' E 139°41'0 0.0
2018-Feb-19 10:30N 35°17' E 139°41'0 0.0
2018-Feb-19 10:00N 35°17' E 139°41'0 0.0
2018-Feb-19 09:30N 35°17' E 139°41'0 0.0
2018-Feb-19 09:00N 35°17' E 139°41'0 0.0
2018-Feb-19 08:30N 35°17' E 139°41'0 0.0
2018-Feb-19 08:00N 35°17' E 139°41'0 0.0
2018-Feb-19 07:30N 35°17' E 139°41'0 0.0
2018-Feb-19 07:00N 35°17' E 139°41'0 0.0
2018-Feb-19 06:29N 35°17' E 139°41'0 0.0
2018-Feb-19 06:00N 35°17' E 139°41'0 0.0
2018-Feb-19 05:30N 35°17' E 139°41'4 8.1
2018-Feb-19 05:01N 35°16' E 139°45'2 3.2
2018-Feb-19 04:30N 35°14' E 139°46'612.6
2018-Feb-19 04:00N 35°20' E 139°42'713.3
2018-Feb-19 03:30N 35°26' E 139°42'1 1.2
2018-Feb-19 03:00N 35°27' E 139°42'0 0.0
2018-Feb-19 02:30N 35°27' E 139°42'0 0.0
2018-Feb-19 02:00N 35°27' E 139°42'0 0.0
2018-Feb-19 01:30N 35°27' E 139°42'0 0.0
2018-Feb-19 01:01N 35°27' E 139°42'0 0.0
2018-Feb-19 00:30N 35°27' E 139°42'0 0.0
2018-Feb-19 00:00N 35°27' E 139°42'0 0.0
2018-Feb-18 23:30N 35°27' E 139°42'0 0.1
2018-Feb-18 23:00N 35°27' E 139°42'2 4.7
2018-Feb-18 22:30N 35°26' E 139°45'5 9.9
2018-Feb-18 22:01N 35°21' E 139°45'610.8
2018-Feb-18 21:30N 35°16' E 139°46'5 9.6
2018-Feb-18 21:01N 35°11' E 139°47'2 3.9
2018-Feb-18 20:30N 35°13' E 139°46'510.6
2018-Feb-18 20:00N 35°18' E 139°42'1 2.9
2018-Feb-18 19:30N 35°17' E 139°41'0 0.0
2018-Feb-18 19:00N 35°17' E 139°41'0 0.0
2018-Feb-18 18:30N 35°17' E 139°41'0 0.0
2018-Feb-18 18:00N 35°17' E 139°41'0 0.0
2018-Feb-18 17:31N 35°17' E 139°41'0 0.0
2018-Feb-18 17:00N 35°17' E 139°41'0 0.0
2018-Feb-18 16:30N 35°17' E 139°41'0 0.0
2018-Feb-18 16:00N 35°17' E 139°41'0 0.0
2018-Feb-18 15:30N 35°17' E 139°41'0 0.0
2018-Feb-18 15:00N 35°17' E 139°41'0 0.0
2018-Feb-18 14:30N 35°17' E 139°41'0 0.0
2018-Feb-18 14:00N 35°17' E 139°41'0 0.0
2018-Feb-18 13:30N 35°17' E 139°41'0 0.0
2018-Feb-18 13:00N 35°17' E 139°41'0 0.0
2018-Feb-18 12:30N 35°17' E 139°41'0 0.0
2018-Feb-18 12:00N 35°17' E 139°41'0 0.0
2018-Feb-18 11:30N 35°17' E 139°41'0 0.0
2018-Feb-18 11:01N 35°17' E 139°41'0 0.0
2018-Feb-18 10:30N 35°17' E 139°41'0 0.0
2018-Feb-18 10:00N 35°17' E 139°41'3 6.8
2018-Feb-18 09:31N 35°20' E 139°42'611.4
2018-Feb-18 09:00N 35°25' E 139°46'611.4
2018-Feb-18 08:30N 35°19' E 139°44'713.0
2018-Feb-18 08:00N 35°13' E 139°47'2 4.3
2018-Feb-18 07:29N 35°11' E 139°47'510.2
2018-Feb-18 07:00N 35°16' E 139°45'510.7
2018-Feb-18 06:30N 35°20' E 139°42'3 5.2
2018-Feb-18 06:01N 35°23' E 139°40'0 0.0
2018-Feb-18 05:30N 35°23' E 139°40'0 0.0
2018-Feb-18 05:00N 35°23' E 139°40'0 0.0
2018-Feb-18 04:30N 35°23' E 139°40'0 0.0
2018-Feb-18 04:00N 35°23' E 139°40'0 0.0
2018-Feb-18 03:30N 35°23' E 139°40'3 6.1
2018-Feb-18 03:00N 35°23' E 139°44'2 3.2
2018-Feb-18 02:30N 35°22' E 139°45'510.5
2018-Feb-18 02:00N 35°16' E 139°46'611.6
2018-Feb-18 01:30N 35°11' E 139°47'4 8.5
2018-Feb-18 01:00N 35°15' E 139°46'5 9.5
2018-Feb-18 00:30N 35°17' E 139°41'0 0.2
2018-Feb-18 00:00N 35°17' E 139°41'0 0.0
2018-Feb-17 23:30N 35°17' E 139°41'0 0.0
2018-Feb-17 23:01N 35°17' E 139°41'0 0.0
2018-Feb-17 22:30N 35°17' E 139°41'0 0.0
2018-Feb-17 22:00N 35°17' E 139°41'0 0.0
2018-Feb-17 21:30N 35°17' E 139°41'0 0.0
2018-Feb-17 21:01N 35°17' E 139°41'0 0.0
2018-Feb-17 20:30N 35°17' E 139°41'0 0.0
2018-Feb-17 20:00N 35°17' E 139°41'0 0.0
2018-Feb-17 19:31N 35°17' E 139°41'0 0.0
2018-Feb-17 19:00N 35°17' E 139°41'0 0.0
2018-Feb-17 18:30N 35°17' E 139°41'0 0.0
2018-Feb-17 18:01N 35°17' E 139°41'0 0.0
2018-Feb-17 17:30N 35°17' E 139°41'0 0.0
2018-Feb-17 17:00N 35°17' E 139°41'0 0.0
2018-Feb-17 16:31N 35°17' E 139°41'0 0.0
2018-Feb-17 16:00N 35°17' E 139°41'0 0.0
2018-Feb-17 15:31N 35°17' E 139°41'0 0.0
2018-Feb-17 15:00N 35°17' E 139°41'0 0.0
2018-Feb-17 14:30N 35°17' E 139°41'0 0.0
2018-Feb-17 13:59N 35°17' E 139°41'0 0.0
2018-Feb-17 13:30N 35°17' E 139°41'0 0.0
2018-Feb-17 13:01N 35°17' E 139°41'0 0.0
2018-Feb-17 12:30N 35°17' E 139°41'0 0.0
2018-Feb-17 12:00N 35°17' E 139°41'0 0.0
2018-Feb-17 11:29N 35°17' E 139°41'0 0.0
2018-Feb-17 11:00N 35°17' E 139°41'0 0.0
2018-Feb-17 10:30N 35°17' E 139°41'0 0.0
2018-Feb-17 10:00N 35°17' E 139°41'0 0.0
2018-Feb-17 09:31N 35°17' E 139°41'0 0.0
2018-Feb-17 09:00N 35°17' E 139°41'0 0.0
2018-Feb-17 08:30N 35°17' E 139°41'0 0.0
2018-Feb-17 08:00N 35°17' E 139°41'0 0.0
2018-Feb-17 07:30N 35°17' E 139°41'0 0.0
2018-Feb-17 07:01N 35°17' E 139°41'0 0.0
2018-Feb-17 06:29N 35°17' E 139°41'0 0.0
2018-Feb-17 06:00N 35°17' E 139°41'0 0.0
2018-Feb-17 05:30N 35°17' E 139°41'0 0.0
2018-Feb-17 05:00N 35°17' E 139°41'0 0.0
2018-Feb-17 04:30N 35°17' E 139°41'0 0.0
2018-Feb-17 04:01N 35°17' E 139°41'0 0.0
2018-Feb-17 03:30N 35°17' E 139°41'0 0.0
2018-Feb-17 03:00N 35°17' E 139°41'0 0.0
2018-Feb-17 02:30N 35°17' E 139°41'0 0.8
2018-Feb-17 02:01N 35°17' E 139°41'5 9.9
2018-Feb-17 01:30N 35°22' E 139°41'4 7.1
2018-Feb-17 01:00N 35°19' E 139°44'611.8
2018-Feb-17 00:30N 35°14' E 139°47'4 7.4
2018-Feb-16 23:59N 35°10' E 139°47'510.0
2018-Feb-16 23:30N 35°15' E 139°46'5 9.5
2018-Feb-16 23:00N 35°17' E 139°41'0 0.6
2018-Feb-16 22:30N 35°17' E 139°41'0 0.0
2018-Feb-16 22:00N 35°17' E 139°41'0 0.0
2018-Feb-16 21:30N 35°17' E 139°41'0 0.0
2018-Feb-16 21:00N 35°17' E 139°41'0 0.0
2018-Feb-16 20:31N 35°17' E 139°41'0 0.0
2018-Feb-16 20:00N 35°17' E 139°41'0 0.0
2018-Feb-16 19:31N 35°17' E 139°41'0 0.0
2018-Feb-16 19:00N 35°17' E 139°41'0 0.0
2018-Feb-16 18:30N 35°17' E 139°41'0 0.0
2018-Feb-16 17:59N 35°17' E 139°41'0 0.0
2018-Feb-16 17:30N 35°17' E 139°41'0 0.0
2018-Feb-16 17:00N 35°17' E 139°41'0 0.0
2018-Feb-16 16:30N 35°17' E 139°41'0 0.0
2018-Feb-16 16:00N 35°17' E 139°41'0 0.0
2018-Feb-16 15:30N 35°17' E 139°41'0 0.0
2018-Feb-16 15:00N 35°17' E 139°41'0 0.0
2018-Feb-16 14:30N 35°17' E 139°41'0 0.0
2018-Feb-16 14:00N 35°17' E 139°41'0 0.0
2018-Feb-16 13:30N 35°17' E 139°41'0 0.0
2018-Feb-16 13:00N 35°17' E 139°41'0 0.0
2018-Feb-16 12:30N 35°17' E 139°41'0 0.0
2018-Feb-16 12:00N 35°17' E 139°41'0 0.0
2018-Feb-16 11:31N 35°17' E 139°41'0 0.0
2018-Feb-16 11:00N 35°17' E 139°41'0 0.0
2018-Feb-16 10:30N 35°17' E 139°41'0 0.0
2018-Feb-16 10:00N 35°17' E 139°41'0 0.0
2018-Feb-16 09:31N 35°17' E 139°41'3 5.5
2018-Feb-16 08:59N 35°17' E 139°44'4 8.6
2018-Feb-16 08:29N 35°13' E 139°46'611.7
2018-Feb-16 08:00N 35°18' E 139°44'713.3
2018-Feb-16 07:30N 35°25' E 139°42'2 3.3
2018-Feb-16 07:00N 35°26' E 139°42'0 0.8
2018-Feb-16 06:30N 35°26' E 139°42'0 0.0
2018-Feb-16 06:00N 35°26' E 139°42'0 0.0
2018-Feb-16 05:30N 35°26' E 139°42'0 0.1
2018-Feb-16 05:00N 35°26' E 139°42'0 0.0
2018-Feb-16 04:30N 35°26' E 139°42'0 0.0
2018-Feb-16 04:00N 35°26' E 139°42'5 9.8
2018-Feb-16 03:30N 35°23' E 139°47'4 7.7
2018-Feb-16 03:00N 35°20' E 139°44'612.2
2018-Feb-16 02:31N 35°14' E 139°47'4 8.8
2018-Feb-16 02:00N 35°10' E 139°47'3 6.3
2018-Feb-16 01:30N 35°13' E 139°46'611.3
2018-Feb-16 01:01N 35°18' E 139°43'611.2
2018-Feb-16 00:31N 35°24' E 139°42'4 7.1
2018-Feb-16 00:00N 35°25' E 139°46'611.2
2018-Feb-15 23:31N 35°20' E 139°44'611.8
2018-Feb-15 23:00N 35°14' E 139°47'4 8.6
2018-Feb-15 22:30N 35°10' E 139°46'510.9
2018-Feb-15 22:00N 35°15' E 139°46'  

Dump ship's entire track history